Cic Pride — H9SQ — position and weather

sailwx.info

Track history (hours):
 
Tides and Currents Weather Stations Pressure Air Temp Water Temp Dewpoint Dewpoint Depression Visibility Wind Speed Wind Dir Waves Ship Positions

Cic Pride

Last reported at 2017-Oct-18 23:27 UTC. Time now 2017-Oct-19 03:29 UTC.
Position N 51°47' E 002°36'.

Length 289 m; draft 16.9 m.

Type: Cargo ship. MMSI: 351111000.

Date/timePositionNaut miles runAvg speedWind from/ knotsBaromVisibWave heightAir tempDewpointWater temp
2017-Oct-18 23:27N 51°47' E 002°36'1113.1
2017-Oct-18 22:35N 51°38' E 002°24'113.0
2017-Oct-18 22:29N 51°37' E 002°23'612.6
2017-Oct-18 22:00N 51°33' E 002°16'612.3
2017-Oct-18 21:30N 51°28' E 002°10'611.8
2017-Oct-18 21:00N 51°24' E 002°03'611.2
2017-Oct-18 20:30N 51°19' E 001°57'510.4
2017-Oct-18 20:00N 51°15' E 001°52'510.0
2017-Oct-18 19:31N 51°12' E 001°47'5 9.4
2017-Oct-18 19:00N 51°08' E 001°43'5 9.3
2017-Oct-18 18:31N 51°04' E 001°39'5 9.5
2017-Oct-18 18:00N 50°60' E 001°34'5 9.7
2017-Oct-18 17:30N 50°56' E 001°30'5810.3
2017-Oct-18 11:54N 50°22' E 000°16'511.3
2017-Oct-18 11:29N 50°21' E 000°09'611.6
2017-Oct-18 11:00N 50°19' E 000°01'612.0
2017-Oct-18 10:31N 50°18' W 000°08'1012.5
2017-Oct-18 09:41N 50°15' W 000°24'313.2
2017-Oct-18 09:28N 50°14' W 000°28'613.6
2017-Oct-18 09:01N 50°12' W 000°37'9114.1
2017-Oct-18 02:33N 49°48' W 002°53'111.5
2017-Oct-18 02:30N 49°48' W 002°54'911.1
2017-Oct-18 01:44N 49°43' W 003°06'210.8
2017-Oct-18 01:30N 49°42' W 003°09'11310.9
2017-Oct-17 15:08N 48°44' W 005°37'213.0
2017-Oct-17 15:00N 48°43' W 005°38'54012.4
2017-Oct-15 19:17N 40°25' W 010°34'813.9
2017-Oct-15 18:42N 40°17' W 010°36'413.8
2017-Oct-15 18:26N 40°14' W 010°38'613.7
2017-Oct-15 18:00N 40°08' W 010°40'713.8
2017-Oct-15 17:30N 40°01' W 010°42'713.8
2017-Oct-15 17:00N 39°55' W 010°44'813.7
2017-Oct-15 16:24N 39°47' W 010°47'513.5
2017-Oct-15 16:00N 39°41' W 010°49'713.9
2017-Oct-15 15:30N 39°35' W 010°51'714.1
2017-Oct-15 15:00N 39°28' W 010°53'1414.2
2017-Oct-15 14:00N 39°14' W 010°58'714.3
2017-Oct-15 13:30N 39°07' W 011°00'714.4
2017-Oct-15 13:00N 39°00' W 011°03'714.2
2017-Oct-15 12:30N 38°54' W 011°05'714.1
2017-Oct-15 12:00N 38°46' W 011°08'714.0
2017-Oct-15 11:30N 38°40' W 011°10'2314.0
2017-Oct-15 09:53N 38°24' W 011°32'614.1
2017-Oct-15 09:26N 38°20' W 011°37'613.5
2017-Oct-15 09:00N 38°16' W 011°43'913.1
2017-Oct-15 08:18N 38°10' W 011°52'412.9
2017-Oct-15 08:00N 38°08' W 011°55'612.9
2017-Oct-15 07:30N 38°03' W 012°01'713.1
2017-Oct-15 07:00N 37°59' W 012°07'713.2
2017-Oct-15 06:30N 37°54' W 012°13'813.2
2017-Oct-15 05:54N 37°49' W 012°21'6713.3
2017-Oct-15 00:53N 37°04' W 013°23'513.3
2017-Oct-15 00:30N 37°00' W 013°28'713.4
2017-Oct-14 23:59N 36°56' W 013°34'  
Track history (hours):
 
Tides and Currents Weather Stations Pressure Air Temp Water Temp Dewpoint Dewpoint Depression Visibility Wind Speed Wind Dir Waves Ship Positions

Cic Pride

Last reported at 2017-Oct-18 23:27 UTC. Time now 2017-Oct-19 03:29 UTC.
Position N 51°47' E 002°36'.

Length 289 m; draft 16.9 m.

Type: Cargo ship. MMSI: 351111000.

Date/timePositionNaut miles runAvg speedWind from/ knotsBaromVisibWave heightAir tempDewpointWater temp
2017-Oct-18 23:27N 51°47' E 002°36'1113.1
2017-Oct-18 22:35N 51°38' E 002°24'113.0
2017-Oct-18 22:29N 51°37' E 002°23'612.6
2017-Oct-18 22:00N 51°33' E 002°16'612.3
2017-Oct-18 21:30N 51°28' E 002°10'611.8
2017-Oct-18 21:00N 51°24' E 002°03'611.2
2017-Oct-18 20:30N 51°19' E 001°57'510.4
2017-Oct-18 20:00N 51°15' E 001°52'510.0
2017-Oct-18 19:31N 51°12' E 001°47'5 9.4
2017-Oct-18 19:00N 51°08' E 001°43'5 9.3
2017-Oct-18 18:31N 51°04' E 001°39'5 9.5
2017-Oct-18 18:00N 50°60' E 001°34'5 9.7
2017-Oct-18 17:30N 50°56' E 001°30'5810.3
2017-Oct-18 11:54N 50°22' E 000°16'511.3
2017-Oct-18 11:29N 50°21' E 000°09'611.6
2017-Oct-18 11:00N 50°19' E 000°01'612.0
2017-Oct-18 10:31N 50°18' W 000°08'1012.5
2017-Oct-18 09:41N 50°15' W 000°24'313.2
2017-Oct-18 09:28N 50°14' W 000°28'613.6
2017-Oct-18 09:01N 50°12' W 000°37'9114.1
2017-Oct-18 02:33N 49°48' W 002°53'111.5
2017-Oct-18 02:30N 49°48' W 002°54'911.1
2017-Oct-18 01:44N 49°43' W 003°06'210.8
2017-Oct-18 01:30N 49°42' W 003°09'11310.9
2017-Oct-17 15:08N 48°44' W 005°37'213.0
2017-Oct-17 15:00N 48°43' W 005°38'54012.4
2017-Oct-15 19:17N 40°25' W 010°34'813.9
2017-Oct-15 18:42N 40°17' W 010°36'413.8
2017-Oct-15 18:26N 40°14' W 010°38'613.7
2017-Oct-15 18:00N 40°08' W 010°40'713.8
2017-Oct-15 17:30N 40°01' W 010°42'713.8
2017-Oct-15 17:00N 39°55' W 010°44'813.7
2017-Oct-15 16:24N 39°47' W 010°47'513.5
2017-Oct-15 16:00N 39°41' W 010°49'713.9
2017-Oct-15 15:30N 39°35' W 010°51'714.1
2017-Oct-15 15:00N 39°28' W 010°53'1414.2
2017-Oct-15 14:00N 39°14' W 010°58'714.3
2017-Oct-15 13:30N 39°07' W 011°00'714.4
2017-Oct-15 13:00N 39°00' W 011°03'714.2
2017-Oct-15 12:30N 38°54' W 011°05'714.1
2017-Oct-15 12:00N 38°46' W 011°08'714.0
2017-Oct-15 11:30N 38°40' W 011°10'2314.0
2017-Oct-15 09:53N 38°24' W 011°32'614.1
2017-Oct-15 09:26N 38°20' W 011°37'613.5
2017-Oct-15 09:00N 38°16' W 011°43'913.1
2017-Oct-15 08:18N 38°10' W 011°52'412.9
2017-Oct-15 08:00N 38°08' W 011°55'612.9
2017-Oct-15 07:30N 38°03' W 012°01'713.1
2017-Oct-15 07:00N 37°59' W 012°07'713.2
2017-Oct-15 06:30N 37°54' W 012°13'813.2
2017-Oct-15 05:54N 37°49' W 012°21'6713.3
2017-Oct-15 00:53N 37°04' W 013°23'513.3
2017-Oct-15 00:30N 37°00' W 013°28'713.4
2017-Oct-14 23:59N 36°56' W 013°34'  

Dump ship's entire track history